Impacts TAF Board INFO
FOR SITUATIONAL AWARENESS. NOT TO BE USED FOR FLIGHT PLANNING PURPOSES.
IDs:

KSAN - San Diego Intl Arpt, CA, US

Issued at 1853 UTC 23 Jul 2017
Updated at 1920 UTC 23 Jul 2017
Potential Impact None Slight Moderate High
Time1851Z 23/20Z 23/21Z 23/22Z 23/23Z 24/00Z 24/01Z 24/02Z 24/03Z 24/04Z 24/05Z 24/06Z 24/07Z 24/08Z>>
Type OBS PRVL PRVL PRVL PRVL PRVL PRVL PRVL PRVL PRVL PRVL PRVL PRVL PRVL
VIS 10 >6 >6 >6 >6 >6 >6 >6 >6 >6 >6 >6 >6 >6
CIG 200 -- -- -- -- -- -- -- -- -- -- -- 12 12
Cover BKN SCT SCT SCT SCT SCT FEW FEW FEW FEW FEW FEW BKN BKN
FltCat VFR VFR VFR VFR VFR VFR VFR VFR VFR VFR VFR VFR MVFR MVFR
WX -- -- -- -- -- -- -- -- -- -- -- -- -- --
WDir 180 250 250 250 250 250 VRB VRB VRB VRB VRB VRB VRB VRB
WSpd 8 9 9 9 9 9 4 4 4 4 4 4 2 2
WGst -- -- -- -- -- -- -- -- -- -- -- -- -- --

Raw TAF
KSAN 231853Z 2319/2424 25009KT P6SM SCT100
  FM240100 VRB04KT P6SM FEW012
  FM240700 VRB02KT P6SM BKN012
  FM241600 VRB04KT P6SM FEW015
  FM241900 25009KT P6SM SKC


Raw METAR
KSAN 231851Z 18008KT 10SM FEW015 SCT060 BKN200 23/15 A2991 RMK AO2 SLP129 T02330150 $
KSAN 231751Z 22005KT 10SM FEW015 SCT200 22/16 A2992 RMK AO2 SLP131 T02220156 10222 20206 50003 $
KSAN 231719Z 24007KT 9SM SCT013 BKN200 22/16 A2992 RMK AO2 T02220156 $
KSAN 231651Z 24005KT 9SM OVC013 22/16 A2992 RMK AO2 SLP131 T02170161 $

METAR Board
Radar Display
Forecast Discussion

FOR SITUATIONAL AWARENESS. NOT TO BE USED FOR FLIGHT PLANNING PURPOSES.